Time;durP1;ratioP1;P1;durP2;ratioP2;P2;SDS_P1;SDS_P2;PMS_P1;PMS_P2;Temp;Humidity;BMP_temperature;BMP_pressure;BME280_temperature;BME280_humidity;BME280_pressure;Samples;Min_cycle;Max_cycle;Signal;HPM_P1;HPM_P2
2023/10/08 00:00:55;;;;;;;;;;;;;;;17.34;100.00;102210.09;5037567;28;19932;-78
2023/10/08 00:03:21;;;;;;;;;;;;;;;17.34;100.00;102196.53;5070505;28;19931;-79
2023/10/08 00:05:47;;;;;;;;;;;;;;;17.32;100.00;102203.94;5048106;28;19917;-78
2023/10/08 00:08:14;;;;;;;;;;;;;;;17.29;100.00;102203.31;5045490;28;19997;-78
2023/10/08 00:10:41;;;;;;;;;;;;;;;17.28;100.00;102217.88;5036835;28;20009;-77
2023/10/08 00:13:09;;;;;;;;;;;;;;;17.21;100.00;102217.53;5047352;28;19928;-78
2023/10/08 00:15:41;;;;;;;;;;;;;;;17.15;100.00;102220.78;5039267;28;20370;-77
2023/10/08 00:18:07;;;;;;;;;;;;;;;17.19;100.00;102222.25;5043768;28;20623;-77
2023/10/08 00:20:56;;;;;;;;;;;;;;;17.14;100.00;102211.78;5044427;28;20374;-77
2023/10/08 00:23:21;;;;;;;;;;;;;;;17.16;100.00;102211.63;5054011;28;20235;-78
2023/10/08 00:25:47;;;;;;;;;;;;;;;17.11;100.00;102213.88;5029960;28;20384;-78
2023/10/08 00:28:14;;;;;;;;;;;;;;;17.07;100.00;102213.28;5045222;28;19924;-78
2023/10/08 00:30:41;;;;;;;;;;;;;;;17.02;100.00;102208.25;5045834;28;20627;-78
2023/10/08 00:33:08;;;;;;;;;;;;;;;16.94;100.00;102222.44;5044559;28;19926;-78
2023/10/08 00:35:37;;;;;;;;;;;;;;;16.92;100.00;102223.53;5046358;28;20636;-79
2023/10/08 00:38:04;;;;;;;;;;;;;;;16.89;100.00;102224.66;5059139;28;19943;-79
2023/10/08 00:40:38;;;;;;;;;;;;;;;16.82;100.00;102230.72;5044292;28;20047;-78
2023/10/08 00:43:11;;;;;;;;;;;;;;;16.75;100.00;102238.47;5049772;28;20023;-77
2023/10/08 00:45:42;;;;;;;;;;;;;;;16.72;100.00;102234.19;5043801;28;19999;-78
2023/10/08 00:48:07;;;;;;;;;;;;;;;16.70;100.00;102228.03;5043578;28;19920;-77
2023/10/08 00:50:42;;;;;;;;;;;;;;;16.69;100.00;102223.59;5040206;28;19974;-78
2023/10/08 00:53:17;;;;;;;;;;;;;;;16.63;100.00;102238.53;5029868;28;19921;-78
2023/10/08 00:55:50;;;;;;;;;;;;;;;16.60;100.00;102236.06;5043724;28;19928;-78
2023/10/08 00:58:23;;;;;;;;;;;;;;;16.62;100.00;102246.75;5042367;28;21212;-78
2023/10/08 01:00:51;;;;;;;;;;;;;;;16.57;100.00;102241.72;5045099;28;20568;-79
2023/10/08 01:03:18;;;;;;;;;;;;;;;16.60;100.00;102240.59;5043940;28;19928;-78
2023/10/08 01:05:47;;;;;;;;;;;;;;;16.61;100.00;102234.19;5027639;28;20370;-78
2023/10/08 01:08:14;;;;;;;;;;;;;;;16.60;100.00;102233.34;5048472;28;20056;-78
2023/10/08 01:10:47;;;;;;;;;;;;;;;16.56;100.00;102231.88;5043053;28;19966;-78
2023/10/08 01:13:16;;;;;;;;;;;;;;;16.51;100.00;102228.66;5050691;28;20070;-77
2023/10/08 01:15:44;;;;;;;;;;;;;;;16.51;100.00;102217.81;5044825;28;19927;-78
2023/10/08 01:18:17;;;;;;;;;;;;;;;16.47;100.00;102222.63;5043547;28;20335;-79
2023/10/08 01:20:52;;;;;;;;;;;;;;;16.43;100.00;102215.72;5048038;28;20011;-78
2023/10/08 01:23:20;;;;;;;;;;;;;;;16.39;100.00;102214.25;5045116;28;19928;-78
2023/10/08 01:25:51;;;;;;;;;;;;;;;16.39;100.00;102216.13;5046521;28;20023;-78
2023/10/08 01:28:26;;;;;;;;;;;;;;;16.42;100.00;102210.44;5050223;28;19993;-78
2023/10/08 01:31:00;;;;;;;;;;;;;;;16.41;100.00;102198.72;5043464;28;19924;-79
2023/10/08 01:33:27;;;;;;;;;;;;;;;16.31;100.00;102192.31;5027282;28;19943;-78
2023/10/08 01:35:53;;;;;;;;;;;;;;;16.26;100.00;102206.25;5053668;28;20439;-78
2023/10/08 01:38:23;;;;;;;;;;;;;;;16.26;100.00;102210.81;5050304;28;20035;-79
2023/10/08 01:40:51;;;;;;;;;;;;;;;16.26;100.00;102219.81;5032260;28;19924;-77
2023/10/08 01:43:16;;;;;;;;;;;;;;;16.30;100.00;102220.41;5051403;28;20596;-78
2023/10/08 01:45:43;;;;;;;;;;;;;;;16.32;100.00;102213.00;5054191;28;19923;-78
2023/10/08 01:48:11;;;;;;;;;;;;;;;16.34;100.00;102216.47;5052730;28;19920;-78
2023/10/08 01:50:37;;;;;;;;;;;;;;;16.34;100.00;102214.63;5049742;28;19950;-78
2023/10/08 01:53:05;;;;;;;;;;;;;;;16.29;100.00;102215.97;5052584;28;21434;-77
2023/10/08 01:55:33;;;;;;;;;;;;;;;16.29;100.00;102224.09;5048576;28;19927;-78
2023/10/08 01:57:59;;;;;;;;;;;;;;;16.29;100.00;102227.69;5052532;28;19928;-78
2023/10/08 02:00:26;;;;;;;;;;;;;;;16.26;100.00;102230.63;5049227;28;19924;-78
2023/10/08 02:02:51;;;;;;;;;;;;;;;16.23;100.00;102225.47;5049827;28;19929;-79
2023/10/08 02:05:18;;;;;;;;;;;;;;;16.22;100.00;102231.88;5047928;28;19927;-78
2023/10/08 02:07:44;;;;;;;;;;;;;;;16.11;100.00;102221.03;5045025;28;20327;-77
2023/10/08 02:10:10;;;;;;;;;;;;;;;16.12;100.00;102222.78;5043357;28;19943;-78
2023/10/08 02:12:35;;;;;;;;;;;;;;;16.09;100.00;102206.75;5049750;28;19922;-77
2023/10/08 02:15:02;;;;;;;;;;;;;;;16.07;100.00;102217.69;5047623;28;19920;-78
2023/10/08 02:17:28;;;;;;;;;;;;;;;16.09;100.00;102240.13;5046653;28;19927;-78
2023/10/08 02:19:53;;;;;;;;;;;;;;;16.09;100.00;102250.09;5045108;28;19921;-78
2023/10/08 02:22:19;;;;;;;;;;;;;;;16.07;100.00;102244.78;5047153;28;20386;-78
2023/10/08 02:24:44;;;;;;;;;;;;;;;16.01;100.00;102243.44;5052993;28;20039;-77
2023/10/08 02:27:10;;;;;;;;;;;;;;;15.94;100.00;102244.03;5050592;28;19942;-78
2023/10/08 02:29:35;;;;;;;;;;;;;;;15.99;100.00;102252.69;5042924;28;19931;-77
2023/10/08 02:32:00;;;;;;;;;;;;;;;15.94;100.00;102257.59;5039660;28;20000;-77
2023/10/08 02:34:26;;;;;;;;;;;;;;;15.95;100.00;102262.03;5041212;28;19963;-78
2023/10/08 02:36:51;;;;;;;;;;;;;;;15.94;100.00;102263.00;5026146;28;19923;-78
2023/10/08 02:39:26;;;;;;;;;;;;;;;15.94;100.00;102257.59;5047039;28;20389;-78
2023/10/08 02:41:51;;;;;;;;;;;;;;;15.95;100.00;102262.03;5046432;28;19925;-78
2023/10/08 02:44:17;;;;;;;;;;;;;;;15.96;100.00;102258.34;5024397;28;19920;-79
2023/10/08 02:46:47;;;;;;;;;;;;;;;15.98;100.00;102276.19;5047887;28;19931;-78
2023/10/08 02:49:13;;;;;;;;;;;;;;;15.97;100.00;102279.03;5045817;28;19947;-78
2023/10/08 02:51:41;;;;;;;;;;;;;;;15.99;100.00;102280.63;5045662;28;20374;-77
2023/10/08 02:54:16;;;;;;;;;;;;;;;15.94;100.00;102288.22;5040742;28;20310;-78
2023/10/08 02:56:44;;;;;;;;;;;;;;;15.94;100.00;102282.81;5042418;28;19938;-78
2023/10/08 02:59:12;;;;;;;;;;;;;;;15.92;100.00;102284.78;5050082;28;20405;-78
2023/10/08 03:01:39;;;;;;;;;;;;;;;15.88;100.00;102262.50;5047276;28;19936;-78
2023/10/08 03:04:14;;;;;;;;;;;;;;;15.68;100.00;102244.19;5046247;28;19920;-78
2023/10/08 03:06:40;;;;;;;;;;;;;;;15.69;100.00;102265.72;5047797;28;19968;-78
2023/10/08 03:09:07;;;;;;;;;;;;;;;15.62;100.00;102259.09;5047325;28;20526;-79
2023/10/08 03:11:32;;;;;;;;;;;;;;;15.62;100.00;102275.31;5047307;28;19920;-78
2023/10/08 03:13:58;;;;;;;;;;;;;;;15.57;100.00;102258.56;5049597;28;19960;-78
2023/10/08 03:16:33;;;;;;;;;;;;;;;15.43;100.00;102249.66;5049995;28;20351;-79
2023/10/08 03:18:59;;;;;;;;;;;;;;;15.42;100.00;102272.28;5070832;23;19929;-79
2023/10/08 03:21:48;;;;;;;;;;;;;;;15.49;100.00;102288.06;5055622;28;20066;-78
2023/10/08 03:24:29;;;;;;;;;;;;;;;15.53;100.00;102287.69;5041373;28;19924;-78
2023/10/08 03:26:56;;;;;;;;;;;;;;;15.52;100.00;102274.28;5039268;28;20398;-79
2023/10/08 03:29:21;;;;;;;;;;;;;;;15.36;100.00;102274.59;5033095;28;19916;-78
2023/10/08 03:34:15;;;;;;;;;;;;;;;15.15;100.00;102261.72;5032129;28;19944;-79
2023/10/08 03:36:44;;;;;;;;;;;;;;;15.12;100.00;102280.88;5032384;28;19928;-78
2023/10/08 03:39:13;;;;;;;;;;;;;;;15.22;100.00;102297.28;5033798;28;19924;-78
2023/10/08 03:41:39;;;;;;;;;;;;;;;15.26;100.00;102285.25;5037649;28;19921;-78
2023/10/08 03:44:06;;;;;;;;;;;;;;;15.25;100.00;102292.47;5039709;28;20642;-78
2023/10/08 03:46:31;;;;;;;;;;;;;;;15.30;100.00;102301.13;5034661;28;20024;-78
2023/10/08 03:48:57;;;;;;;;;;;;;;;15.31;100.00;102304.72;5036981;28;19920;-78
2023/10/08 03:51:26;;;;;;;;;;;;;;;15.24;100.00;102301.56;5019809;28;19974;-78
2023/10/08 03:53:58;;;;;;;;;;;;;;;15.00;100.00;102298.88;5021933;28;19920;-78
2023/10/08 03:56:30;;;;;;;;;;;;;;;14.84;100.00;102291.88;5023051;28;19928;-78
2023/10/08 03:58:55;;;;;;;;;;;;;;;14.87;100.00;102289.91;5032719;28;19916;-78
2023/10/08 04:01:21;;;;;;;;;;;;;;;14.71;100.00;102277.53;5035591;28;19920;-77
2023/10/08 04:06:29;;;;;;;;;;;;;;;14.73;100.00;102289.09;5048082;28;19920;-77
2023/10/08 04:11:35;;;;;;;;;;;;;;;14.78;100.00;102304.97;5045445;28;20361;-78
2023/10/08 04:14:02;;;;;;;;;;;;;;;14.88;100.00;102311.44;5046425;28;20023;-78
2023/10/08 04:16:27;;;;;;;;;;;;;;;14.96;100.00;102325.25;5033026;28;19920;-78
2023/10/08 04:18:55;;;;;;;;;;;;;;;15.02;100.00;102323.09;5045837;28;19925;-78
2023/10/08 04:21:20;;;;;;;;;;;;;;;15.03;100.00;102324.81;5047515;28;19932;-78
2023/10/08 04:23:46;;;;;;;;;;;;;;;15.06;100.00;102321.88;5024185;28;19921;-78
2023/10/08 04:26:12;;;;;;;;;;;;;;;15.11;100.00;102317.84;5043206;28;21564;-78
2023/10/08 04:28:37;;;;;;;;;;;;;;;15.12;100.00;102327.69;5042637;28;20316;-78
2023/10/08 04:31:14;;;;;;;;;;;;;;;15.09;100.00;102327.97;5044962;28;19920;-78
2023/10/08 04:33:44;;;;;;;;;;;;;;;15.11;100.00;102333.25;5041799;28;19925;-78
2023/10/08 04:36:09;;;;;;;;;;;;;;;15.11;100.00;102341.34;5045782;28;19924;-78
2023/10/08 04:38:39;;;;;;;;;;;;;;;15.11;100.00;102352.19;5030493;28;19978;-78
2023/10/08 04:41:08;;;;;;;;;;;;;;;15.08;100.00;102371.34;5047216;28;20805;-78
2023/10/08 04:43:37;;;;;;;;;;;;;;;15.07;100.00;102369.59;5042845;28;19935;-78
2023/10/08 04:46:18;;;;;;;;;;;;;;;15.08;100.00;102366.81;5031276;28;20455;-78
2023/10/08 04:48:44;;;;;;;;;;;;;;;15.10;100.00;102369.38;5044900;28;20400;-78
2023/10/08 04:51:12;;;;;;;;;;;;;;;15.09;100.00;102373.06;5043891;28;19920;-78
2023/10/08 04:53:40;;;;;;;;;;;;;;;15.08;100.00;102365.91;5042653;28;20345;-79
2023/10/08 04:56:13;;;;;;;;;;;;;;;15.05;100.00;102368.84;5025247;28;19925;-78
2023/10/08 04:58:40;;;;;;;;;;;;;;;15.03;100.00;102371.69;5027415;28;20275;-78
2023/10/08 05:01:17;;;;;;;;;;;;;;;14.96;100.00;102365.81;5027218;28;19924;-78
2023/10/08 05:09:10;;;;;;;;;;;;;;;14.79;100.00;102367.06;5031318;28;19928;-78
2023/10/08 05:14:28;;;;;;;;;;;;;;;14.59;100.00;102344.13;5035122;28;19985;-78
2023/10/08 05:22:17;;;;;;;;;;;;;;;14.42;100.00;102334.50;5042452;28;19928;-78
2023/10/08 05:24:51;;;;;;;;;;;;;;;14.52;100.00;102342.81;5030640;28;19927;-78
2023/10/08 05:30:24;;;;;;;;;;;;;;;14.63;100.00;102358.28;5031386;28;20366;-77
2023/10/08 05:44:38;;;;;;;;;;;;;;;14.78;100.00;102381.56;5041495;28;19928;-79
2023/10/08 05:57:14;;;;;;;;;;;;;;;14.62;100.00;102362.81;5035567;28;21349;-78
2023/10/08 06:07:48;;;;;;;;;;;;;;;14.58;100.00;102376.63;5049892;28;19930;-77
2023/10/08 06:10:41;;;;;;;;;;;;;;;14.64;100.00;102378.91;5048812;28;19947;-77
2023/10/08 06:13:09;;;;;;;;;;;;;;;14.67;100.00;102381.41;5030150;28;19943;-77
2023/10/08 06:18:25;;;;;;;;;;;;;;;14.66;100.00;102391.38;5026606;28;19977;-77
2023/10/08 06:20:54;;;;;;;;;;;;;;;14.59;100.00;102386.47;5021133;28;20077;-77
2023/10/08 06:23:20;;;;;;;;;;;;;;;14.66;100.00;102395.91;5040525;28;19939;-77
2023/10/08 06:25:45;;;;;;;;;;;;;;;14.71;100.00;102399.19;5010833;28;19924;-77
2023/10/08 06:28:15;;;;;;;;;;;;;;;14.75;100.00;102403.41;5020742;28;19924;-77
2023/10/08 06:30:40;;;;;;;;;;;;;;;14.75;100.00;102402.53;5020949;28;19967;-78
2023/10/08 06:33:06;;;;;;;;;;;;;;;14.76;100.00;102404.25;5044162;28;20375;-77
2023/10/08 06:35:33;;;;;;;;;;;;;;;14.78;100.00;102410.41;5009312;28;19925;-77
2023/10/08 06:37:59;;;;;;;;;;;;;;;14.81;100.00;102402.97;5020900;28;19924;-77
2023/10/08 06:43:47;;;;;;;;;;;;;;;14.94;100.00;102418.31;5022583;28;19931;-77
2023/10/08 06:45:57;;;;;;;;;;;;;;;15.10;100.00;102443.25;5019455;28;20408;-78
2023/10/08 06:48:23;;;;;;;;;;;;;;;15.02;100.00;102458.31;5025571;28;19971;-77
2023/10/08 06:50:48;;;;;;;;;;;;;;;15.00;100.00;102467.41;5025616;28;20062;-77
2023/10/08 06:53:14;;;;;;;;;;;;;;;15.00;100.00;102469.25;5026444;28;19916;-78
2023/10/08 06:55:40;;;;;;;;;;;;;;;15.03;100.00;102473.56;5014346;28;20007;-77
2023/10/08 06:58:05;;;;;;;;;;;;;;;15.06;100.00;102473.34;5013110;28;19927;-78
2023/10/08 07:00:40;;;;;;;;;;;;;;;15.04;100.00;102470.78;5029470;28;20036;-78
2023/10/08 07:03:10;;;;;;;;;;;;;;;15.07;100.00;102475.97;5046788;28;19929;-77
2023/10/08 07:05:40;;;;;;;;;;;;;;;14.89;100.00;102451.09;5030406;28;19925;-78
2023/10/08 07:08:12;;;;;;;;;;;;;;;15.03;100.00;102476.28;5028774;28;19920;-79
2023/10/08 07:10:38;;;;;;;;;;;;;;;14.97;100.00;102475.72;5017178;28;19960;-79
2023/10/08 07:13:03;;;;;;;;;;;;;;;14.94;100.00;102477.81;5011619;28;20020;-79
2023/10/08 07:15:29;;;;;;;;;;;;;;;14.85;100.00;102477.47;5027492;28;19927;-79
2023/10/08 07:17:55;;;;;;;;;;;;;;;14.71;100.00;102466.75;5027245;28;20319;-79
2023/10/08 07:20:24;;;;;;;;;;;;;;;14.75;100.00;102483.63;5048691;28;19931;-79
2023/10/08 07:22:55;;;;;;;;;;;;;;;14.70;100.00;102478.56;5010047;28;19928;-78
2023/10/08 07:25:21;;;;;;;;;;;;;;;14.70;100.00;102475.84;5010458;28;19920;-79
2023/10/08 07:27:47;;;;;;;;;;;;;;;14.72;100.00;102489.25;5011900;28;19920;-79
2023/10/08 07:30:12;;;;;;;;;;;;;;;14.70;100.00;102498.31;5042967;28;19960;-79
2023/10/08 07:32:38;;;;;;;;;;;;;;;14.69;100.00;102502.03;5023740;28;19974;-79
2023/10/08 07:35:25;;;;;;;;;;;;;;;14.67;100.00;102486.84;5027179;28;20367;-79
2023/10/08 07:37:51;;;;;;;;;;;;;;;14.66;100.00;102496.81;5028486;28;20244;-79
2023/10/08 07:40:16;;;;;;;;;;;;;;;14.65;100.00;102497.78;5039131;28;20700;-78
2023/10/08 07:42:41;;;;;;;;;;;;;;;14.66;100.00;102502.22;5027166;28;19987;-80
2023/10/08 07:45:07;;;;;;;;;;;;;;;14.72;100.00;102500.06;5024216;28;20058;-78
2023/10/08 07:47:32;;;;;;;;;;;;;;;14.64;100.00;102500.56;5010386;28;19924;-79
2023/10/08 07:50:01;;;;;;;;;;;;;;;14.63;100.00;102507.81;5044545;28;20662;-78
2023/10/08 07:52:26;;;;;;;;;;;;;;;14.52;100.00;102499.56;5041953;28;20452;-78
2023/10/08 07:54:53;;;;;;;;;;;;;;;14.64;100.00;102505.97;5025338;28;20321;-78
2023/10/08 07:57:25;;;;;;;;;;;;;;;14.71;100.00;102504.63;5044463;28;20088;-79
2023/10/08 07:59:54;;;;;;;;;;;;;;;14.69;100.00;102506.56;5041374;28;19927;-78
2023/10/08 08:02:20;;;;;;;;;;;;;;;14.72;100.00;102502.75;5049231;28;19928;-79
2023/10/08 08:04:46;;;;;;;;;;;;;;;14.87;100.00;102509.81;5053680;28;19927;-78
2023/10/08 08:07:18;;;;;;;;;;;;;;;14.83;100.00;102517.25;5032886;28;20508;-77
2023/10/08 08:09:50;;;;;;;;;;;;;;;14.73;100.00;102507.19;5052829;28;20003;-78
2023/10/08 08:12:15;;;;;;;;;;;;;;;14.68;100.00;102510.19;5056603;28;20012;-79
2023/10/08 08:14:41;;;;;;;;;;;;;;;14.70;100.00;102519.94;5034439;28;19924;-78
2023/10/08 08:17:15;;;;;;;;;;;;;;;14.78;100.00;102523.97;5056439;28;19920;-78
2023/10/08 08:19:41;;;;;;;;;;;;;;;14.87;100.00;102527.88;5047773;28;19962;-78
2023/10/08 08:22:07;;;;;;;;;;;;;;;14.81;100.00;102527.34;5046474;28;20024;-75
2023/10/08 08:24:35;;;;;;;;;;;;;;;14.73;100.00;102543.22;5048387;28;19943;-77
2023/10/08 08:27:01;;;;;;;;;;;;;;;14.81;100.00;102543.56;5049083;28;19942;-78
2023/10/08 08:29:27;;;;;;;;;;;;;;;14.79;100.00;102553.63;5045542;28;19921;-78
2023/10/08 08:31:53;;;;;;;;;;;;;;;14.73;100.00;102564.84;5046270;28;19917;-78
2023/10/08 08:34:19;;;;;;;;;;;;;;;14.75;100.00;102572.84;5047043;28;20661;-78
2023/10/08 08:36:48;;;;;;;;;;;;;;;14.78;100.00;102572.63;5028168;28;19927;-78
2023/10/08 08:39:27;;;;;;;;;;;;;;;14.69;100.00;102577.72;5043022;28;19988;-78
2023/10/08 08:41:53;;;;;;;;;;;;;;;14.76;100.00;102570.06;5042542;28;20919;-77
2023/10/08 08:44:18;;;;;;;;;;;;;;;14.83;100.00;102570.50;5048765;28;19932;-79
2023/10/08 08:46:43;;;;;;;;;;;;;;;14.87;100.00;102573.84;5030713;28;19972;-79
2023/10/08 08:49:09;;;;;;;;;;;;;;;14.77;100.00;102573.59;5049397;28;20139;-80
2023/10/08 08:51:37;;;;;;;;;;;;;;;14.75;100.00;102565.63;5046875;28;19926;-79
2023/10/08 08:54:06;;;;;;;;;;;;;;;14.63;100.00;102575.41;5045047;28;20263;-77
2023/10/08 08:56:34;;;;;;;;;;;;;;;14.78;100.00;102570.81;5050262;28;19924;-77
2023/10/08 08:59:00;;;;;;;;;;;;;;;14.74;100.00;102572.00;5043547;28;20018;-78
2023/10/08 09:01:25;;;;;;;;;;;;;;;14.76;100.00;102579.97;5028058;28;19927;-80
2023/10/08 09:03:50;;;;;;;;;;;;;;;14.68;100.00;102573.28;5049106;28;19920;-79
2023/10/08 09:06:15;;;;;;;;;;;;;;;14.68;100.00;102584.09;5043961;28;19927;-77
2023/10/08 09:08:42;;;;;;;;;;;;;;;14.79;100.00;102582.47;5045227;28;20029;-78
2023/10/08 09:11:08;;;;;;;;;;;;;;;14.86;100.00;102586.50;5047493;28;20023;-78
2023/10/08 09:13:34;;;;;;;;;;;;;;;14.88;100.00;102591.81;5048879;28;19916;-78
2023/10/08 09:16:15;;;;;;;;;;;;;;;14.76;100.00;102577.28;5026203;28;19921;-77
2023/10/08 09:18:45;;;;;;;;;;;;;;;14.98;100.00;102598.31;5030107;28;19947;-78
2023/10/08 09:21:11;;;;;;;;;;;;;;;15.00;100.00;102608.06;5049566;28;20437;-80
2023/10/08 09:23:43;;;;;;;;;;;;;;;14.81;100.00;102604.88;5034939;28;20026;-79
2023/10/08 09:26:08;;;;;;;;;;;;;;;14.84;100.00;102602.81;5026856;28;20001;-77
2023/10/08 09:28:34;;;;;;;;;;;;;;;14.93;100.00;102592.34;5049449;28;20003;-79
2023/10/08 09:30:59;;;;;;;;;;;;;;;15.08;100.00;102588.63;5046156;28;20054;-79
2023/10/08 09:33:25;;;;;;;;;;;;;;;15.17;100.00;102592.50;5030348;28;19961;-79
2023/10/08 09:35:51;;;;;;;;;;;;;;;15.20;100.00;102586.88;5046810;28;20010;-77
2023/10/08 09:38:22;;;;;;;;;;;;;;;15.01;100.00;102579.19;5029839;28;20038;-80
2023/10/08 09:40:48;;;;;;;;;;;;;;;14.87;100.00;102569.31;5029879;28;19931;-76
2023/10/08 09:43:15;;;;;;;;;;;;;;;14.80;100.00;102574.28;5046175;28;19924;-79
2023/10/08 09:45:42;;;;;;;;;;;;;;;15.00;100.00;102581.00;5029108;28;19967;-78
2023/10/08 09:48:11;;;;;;;;;;;;;;;15.14;100.00;102577.34;5014585;28;20043;-76
2023/10/08 09:50:37;;;;;;;;;;;;;;;15.18;100.00;102566.31;5027596;28;19943;-76
2023/10/08 09:53:22;;;;;;;;;;;;;;;15.45;100.00;102563.50;5026953;28;20158;-77
2023/10/08 09:55:56;;;;;;;;;;;;;;;15.57;100.00;102562.59;5027217;28;19985;-76
2023/10/08 09:58:25;;;;;;;;;;;;;;;15.40;100.00;102565.66;5026187;28;19955;-76
2023/10/08 10:00:50;;;;;;;;;;;;;;;15.58;100.00;102569.75;5043355;28;19981;-76
2023/10/08 10:03:18;;;;;;;;;;;;;;;15.42;100.00;102555.59;5026853;28;21277;-78
2023/10/08 10:05:44;;;;;;;;;;;;;;;15.63;100.00;102564.00;5029181;28;20510;-78
2023/10/08 10:08:09;;;;;;;;;;;;;;;15.55;100.00;102566.41;5030243;28;20331;-77
2023/10/08 10:10:37;;;;;;;;;;;;;;;15.82;100.00;102566.25;5028667;28;20465;-76
2023/10/08 10:13:03;;;;;;;;;;;;;;;16.04;100.00;102568.28;5021176;28;20024;-78
2023/10/08 10:15:30;;;;;;;;;;;;;;;16.22;100.00;102559.75;5005954;28;19920;-79
2023/10/08 10:17:58;;;;;;;;;;;;;;;16.40;100.00;102564.78;5027564;28;20293;-77
2023/10/08 10:20:24;;;;;;;;;;;;;;;16.49;100.00;102575.81;5044735;28;19928;-76
2023/10/08 10:22:49;;;;;;;;;;;;;;;16.53;100.00;102572.88;5010435;28;20829;-79
2023/10/08 10:25:17;;;;;;;;;;;;;;;16.42;100.00;102576.41;5011383;28;19955;-77
2023/10/08 10:27:55;;;;;;;;;;;;;;;16.28;100.00;102580.13;5028104;28;19973;-77
2023/10/08 10:30:20;;;;;;;;;;;;;;;16.49;100.00;102578.53;5044935;28;19932;-77
2023/10/08 10:32:46;;;;;;;;;;;;;;;16.42;100.00;102579.09;5045462;28;19981;-76
2023/10/08 10:35:17;;;;;;;;;;;;;;;16.49;100.00;102573.09;5016738;28;20438;-77
2023/10/08 10:37:43;;;;;;;;;;;;;;;16.72;100.00;102564.16;5047279;28;19924;-76
2023/10/08 10:40:12;;;;;;;;;;;;;;;16.86;100.00;102563.09;5025037;28;20354;-78
2023/10/08 10:42:42;;;;;;;;;;;;;;;16.99;100.00;102573.91;5046166;28;19921;-76
2023/10/08 10:48:12;;;;;;;;;;;;;;;17.22;100.00;102570.25;5027209;28;19931;-78
2023/10/08 10:50:48;;;;;;;;;;;;;;;17.02;100.00;102569.13;5026506;28;20272;-79
2023/10/08 10:53:14;;;;;;;;;;;;;;;16.93;100.00;102569.78;5028759;28;19978;-77
2023/10/08 10:55:47;;;;;;;;;;;;;;;16.37;100.00;102584.84;5026419;28;20122;-77
2023/10/08 10:58:15;;;;;;;;;;;;;;;16.63;100.00;102579.28;5030267;28;19923;-76
2023/10/08 11:03:16;;;;;;;;;;;;;;;16.85;100.00;102575.81;5048151;28;20027;-78
2023/10/08 11:05:47;;;;;;;;;;;;;;;17.01;100.00;102571.94;5044829;28;19927;-79
2023/10/08 11:08:14;;;;;;;;;;;;;;;16.92;100.00;102576.19;5029899;28;20076;-75
2023/10/08 11:11:17;;;;;;;;;;;;;;;17.07;100.00;102577.75;5040947;28;20207;-78
2023/10/08 11:13:37;;;;;;;;;;;;;;;17.17;100.00;102568.88;5035667;28;19921;-78
2023/10/08 11:16:03;;;;;;;;;;;;;;;17.12;100.00;102561.09;5027441;28;19916;-77
2023/10/08 11:18:28;;;;;;;;;;;;;;;17.03;100.00;102570.84;5030034;28;19956;-77
2023/10/08 11:21:02;;;;;;;;;;;;;;;17.32;100.00;102562.25;4989162;28;1770253;-76
2023/10/08 11:23:33;;;;;;;;;;;;;;;17.41;100.00;102563.38;5034929;28;19924;-76
2023/10/08 11:26:02;;;;;;;;;;;;;;;17.29;100.00;102562.50;5028868;28;19921;-76
2023/10/08 11:28:27;;;;;;;;;;;;;;;17.04;100.00;102548.16;5031179;28;19916;-77
2023/10/08 11:30:53;;;;;;;;;;;;;;;16.83;100.00;102553.38;5045727;28;19920;-76
2023/10/08 11:33:18;;;;;;;;;;;;;;;17.06;100.00;102557.03;5029717;28;19935;-77
2023/10/08 11:35:58;;;;;;;;;;;;;;;17.05;100.00;102551.72;5035867;28;19961;-76
2023/10/08 11:38:24;;;;;;;;;;;;;;;16.99;100.00;102547.63;5049408;28;19969;-79
2023/10/08 11:40:49;;;;;;;;;;;;;;;16.96;100.00;102555.13;5035207;28;19924;-78
2023/10/08 11:43:15;;;;;;;;;;;;;;;16.73;100.00;102549.63;5029498;28;19928;-76
2023/10/08 11:45:50;;;;;;;;;;;;;;;16.72;100.00;102565.03;5049783;28;19916;-79
2023/10/08 11:48:21;;;;;;;;;;;;;;;16.72;100.00;102553.31;5027944;28;20109;-74
2023/10/08 11:50:47;;;;;;;;;;;;;;;16.50;100.00;102557.69;5047575;28;19927;-77
2023/10/08 11:53:12;;;;;;;;;;;;;;;16.53;100.00;102551.19;5046683;28;20319;-77
2023/10/08 11:55:42;;;;;;;;;;;;;;;16.55;100.00;102555.50;5025303;28;20657;-77
2023/10/08 11:58:10;;;;;;;;;;;;;;;16.68;100.00;102546.44;5044458;28;19982;-76
2023/10/08 12:00:44;;;;;;;;;;;;;;;16.54;100.00;102539.34;5035529;28;19924;-76
2023/10/08 12:03:10;;;;;;;;;;;;;;;16.53;100.00;102554.75;5040613;28;19970;-79
2023/10/08 12:05:35;;;;;;;;;;;;;;;16.50;100.00;102544.13;5045427;28;19935;-75
2023/10/08 12:08:01;;;;;;;;;;;;;;;16.56;100.00;102532.81;5033513;28;19924;-76
2023/10/08 12:10:26;;;;;;;;;;;;;;;16.79;100.00;102535.59;5030605;28;19959;-75
2023/10/08 12:12:52;;;;;;;;;;;;;;;16.74;100.00;102535.97;5023373;28;20585;-76
2023/10/08 12:15:20;;;;;;;;;;;;;;;16.84;100.00;102529.81;5044557;28;20406;-79
2023/10/08 12:20:34;;;;;;;;;;;;;;;16.88;100.00;102537.59;5024485;28;19994;-77
2023/10/08 12:22:59;;;;;;;;;;;;;;;16.98;100.00;102532.34;5029883;28;19925;-75
2023/10/08 12:25:24;;;;;;;;;;;;;;;17.13;100.00;102527.56;5010035;28;20507;-78
2023/10/08 12:27:50;;;;;;;;;;;;;;;17.31;100.00;102536.09;5029180;28;20255;-75
2023/10/08 12:30:15;;;;;;;;;;;;;;;17.31;100.00;102521.63;5011072;28;20051;-76
2023/10/08 12:32:42;;;;;;;;;;;;;;;17.34;100.00;102515.97;5022626;28;20007;-77
2023/10/08 12:35:12;;;;;;;;;;;;;;;17.27;100.00;102520.16;5024480;28;19921;-74
2023/10/08 12:37:38;;;;;;;;;;;;;;;17.25;100.00;102512.16;5019207;28;20558;-76
2023/10/08 12:40:11;;;;;;;;;;;;;;;17.10;100.00;102514.22;5019861;28;19928;-80
2023/10/08 12:42:38;;;;;;;;;;;;;;;17.01;100.00;102510.41;5025586;28;19964;-79
2023/10/08 12:45:11;;;;;;;;;;;;;;;16.91;100.00;102503.94;5023452;28;19928;-78
2023/10/08 12:47:36;;;;;;;;;;;;;;;16.90;100.00;102505.78;5031252;28;20138;-77
2023/10/08 12:50:07;;;;;;;;;;;;;;;16.68;100.00;102497.63;5028175;28;19927;-76
2023/10/08 12:52:34;;;;;;;;;;;;;;;16.72;100.00;102489.09;5029541;28;19921;-79
2023/10/08 12:55:03;;;;;;;;;;;;;;;16.77;100.00;102488.75;5027261;28;20390;-79
2023/10/08 12:57:32;;;;;;;;;;;;;;;16.88;100.00;102487.88;5022252;28;19921;-78
2023/10/08 12:59:59;;;;;;;;;;;;;;;17.06;100.00;102480.19;5025750;28;19920;-79
2023/10/08 13:02:28;;;;;;;;;;;;;;;16.98;100.00;102480.78;5031587;28;20374;-74
2023/10/08 13:04:54;;;;;;;;;;;;;;;16.92;100.00;102473.97;5020889;28;19943;-76
2023/10/08 13:07:21;;;;;;;;;;;;;;;16.88;100.00;102471.63;5028109;28;19920;-76
2023/10/08 13:09:46;;;;;;;;;;;;;;;17.00;100.00;102472.53;5014144;28;20248;-75
2023/10/08 13:12:13;;;;;;;;;;;;;;;17.28;100.00;102465.75;5023852;28;19990;-78
2023/10/08 13:14:39;;;;;;;;;;;;;;;17.04;100.00;102455.91;5022575;28;19921;-74
2023/10/08 13:17:10;;;;;;;;;;;;;;;17.06;100.00;102456.63;5025907;28;20030;-76
2023/10/08 13:19:35;;;;;;;;;;;;;;;17.05;100.00;102451.31;5035628;28;19944;-78
2023/10/08 13:22:01;;;;;;;;;;;;;;;17.17;100.00;102452.19;5030471;28;20320;-77
2023/10/08 13:24:28;;;;;;;;;;;;;;;16.92;100.00;102455.00;5044398;28;19920;-79
2023/10/08 13:26:53;;;;;;;;;;;;;;;16.89;100.00;102454.34;5047997;28;20014;-76
2023/10/08 13:29:18;;;;;;;;;;;;;;;16.90;100.00;102456.09;5047143;28;19925;-79
2023/10/08 13:31:45;;;;;;;;;;;;;;;16.91;100.00;102442.41;5048255;28;19920;-79
2023/10/08 13:34:12;;;;;;;;;;;;;;;17.04;100.00;102442.34;5044155;28;19924;-77
2023/10/08 13:36:37;;;;;;;;;;;;;;;16.98;100.00;102439.22;5046874;28;19921;-76
2023/10/08 13:39:03;;;;;;;;;;;;;;;16.88;100.00;102439.94;5045898;28;19927;-76